Spottwood, South Dakota
Current Conditions -  °F | °C
As of 7:55 AM on Friday 24 Oct 2014 (Local Time) from KHON Reporting Station
Clear Clear  
Wind Chill:   Ceiling: Unl
Heat Index:   Visibility: 10mi
Dew Point:   Wind: 6mph
Humidity: 93%   Direction: 300°WNW
Pressure: 29.86"   Gusts: NA
Location:  44.7205°N, 98.5844°W
Report Text: KHON 241255Z AUTO 30005KT 10SM CLR 03/02 A2986 RMK AO2 SLP118 T00330022 $
Loading
Personal Weather Stations






























Interactive Weather Map
Tropical Storm Tracking
New forecast layout! Learn more

10-Day Weather Forecast

Advertisements
Track Severe Weather on mobile